Flight Track Log - Related Links

Times and Time Zones

All times are in EDT time to prevent confusion due to time zone crossing. See the AAL1686 flight status page for this flight to view local times or setup timezone preferences in your user account.

Time Position Orientation Groundspeed Altitude Reporting Facility
EDT Latitude Longitude Course Direction KTS MPH feet Rate Location/Type
Tue 07:41:03 PM 33.9333 -118.4500 55° Northeast 181 208 1,600  Level Southern California TRACON
Tue 07:42:12 PM 33.9053 -118.5342 248° West 253 291 4,000 2,702 Climbing Los Angeles Center
Tue 07:43:00 PM 34.1245 -118.0844 59° Northeast  Level FlightAware Approximate
Tue 07:43:14 PM 33.8364 -118.5486 190° South 289 333 7,500  Level Los Angeles Center
Tue 07:44:00 PM 34.1897 -117.9540 59° Northeast  Level FlightAware Approximate
Tue 07:44:16 PM 33.8389 -118.4539 88° East 307 353 10,300  Level Los Angeles Center
Tue 07:45:00 PM 34.2593 -117.8386 68° East  Level FlightAware Approximate
Tue 07:45:18 PM 33.9172 -118.4319 13° North 304 350 12,000  Level Los Angeles Center
Tue 07:46:00 PM 34.3238 -117.7125 55° Northeast  Level FlightAware Approximate
Tue 07:46:20 PM 33.9850 -118.3442 47° Northeast 370 426 13,700  Level Los Angeles Center
Tue 07:47:22 PM 34.0456 -118.2333 57° Northeast 391 450 16,200 2,371 Climbing Los Angeles Center
Tue 07:48:24 PM 34.1086 -118.1236 55° Northeast 398 458 18,600 2,177 Climbing Los Angeles Center
Tue 07:49:26 PM 34.1867 -117.9853 56° Northeast 412 474 20,700 1,984 Climbing Los Angeles Center
Tue 07:50:28 PM 34.2536 -117.8664 56° Northeast 425 489 22,700 1,113 Climbing Los Angeles Center
Tue 07:51:30 PM 34.3214 -117.7458 56° Northeast 432 497 23,000 726 Climbing Los Angeles Center
Tue 07:52:32 PM 34.3917 -117.6172 56° Northeast 433 498 24,200 1,403 Climbing Los Angeles Center
Tue 07:53:34 PM 34.4578 -117.4981 56° Northeast 431 496 25,900 1,887 Climbing Los Angeles Center
Tue 07:54:36 PM 34.5300 -117.3850 52° Northeast 427 491 28,100 1,500 Climbing Los Angeles Center
Tue 07:55:38 PM 34.6069 -117.2803 48° Northeast 420 483 29,000 435 Climbing Los Angeles Center
Tue 07:56:40 PM 34.6869 -117.1686 49° Northeast 436 502 29,000  Level Los Angeles Center
Tue 07:57:42 PM 34.7858 -117.0294 49° Northeast 452 520 29,000  Level Los Angeles Center
Tue 07:58:45 PM 34.8661 -116.9150 49° Northeast 452 520 29,000 384 Level Los Angeles Center
Tue 07:59:47 PM 34.9456 -116.8019 49° Northeast 447 514 29,800 968 Climbing Los Angeles Center
Tue 08:00:49 PM 35.0264 -116.6858 50° Northeast 449 517 31,000 1,065 Climbing Los Angeles Center
Tue 08:01:51 PM 35.1078 -116.5703 49° Northeast 450 518 32,000 968 Climbing Los Angeles Center
Tue 08:02:53 PM 35.2072 -116.4325 49° Northeast 451 519 33,000 484 Climbing Los Angeles Center
Tue 08:03:55 PM 35.2886 -116.3144 50° Northeast 455 524 33,000  Level Los Angeles Center
Tue 08:04:57 PM 35.3703 -116.1972 49° Northeast 454 522 33,000  Level Los Angeles Center
Tue 08:05:59 PM 35.4500 -116.0775 51° Northeast 455 524 33,000  Level Los Angeles Center
Tue 08:07:01 PM 35.5347 -115.9603 48° Northeast 459 528 33,000  Level Los Angeles Center
Tue 08:08:03 PM 35.6200 -115.8372 50° Northeast 453 521 33,000  Level Los Angeles Center
Tue 08:09:05 PM 35.7189 -115.6925 50° Northeast 462 532 33,000  Level Los Angeles Center
Tue 08:10:07 PM 35.8003 -115.5719 50° Northeast 460 529 33,000  Level Los Angeles Center
Tue 08:11:10 PM 35.8808 -115.4539 50° Northeast 455 524 33,000  Level Los Angeles Center
Tue 08:12:12 PM 35.9606 -115.3372 50° Northeast 450 518 33,000  Level Los Angeles Center
Tue 08:13:14 PM 36.0392 -115.2206 50° Northeast 447 514 33,000  Level Los Angeles Center
Tue 08:14:16 PM 36.1125 -115.0544 61° Northeast 466 536 33,000  Level Los Angeles Center
Tue 08:15:18 PM 36.1581 -114.9042 69° East 467 537 33,000  Level Los Angeles Center
Tue 08:16:20 PM 36.2036 -114.7550 69° East 467 537 33,000  Level Los Angeles Center
Tue 08:17:22 PM 36.2506 -114.6050 69° East 468 539 33,000  Level Los Angeles Center
Tue 08:18:24 PM 36.2950 -114.4544 70° East 468 539 33,000  Level Los Angeles Center
Tue 08:19:26 PM 36.3506 -114.2697 69° East 477 549 33,000  Level Los Angeles Center
Tue 08:20:28 PM 36.3983 -114.1169 69° East 477 549 33,000  Level Los Angeles Center
Tue 08:21:30 PM 36.4433 -113.9631 70° East 476 548 33,000  Level Los Angeles Center
Tue 08:22:32 PM 36.4894 -113.8075 70° East 479 551 33,000  Level Los Angeles Center
Tue 08:23:34 PM 36.5344 -113.6528 70° East 478 550 33,000  Level Los Angeles Center
Tue 08:24:36 PM 36.5806 -113.4994 69° East 476 548 33,000  Level Los Angeles Center
Tue 08:25:38 PM 36.6350 -113.3128 70° East 479 551 33,000  Level Los Angeles Center
Tue 08:26:40 PM 36.6806 -113.1556 70° East 483 556 33,000  Level Los Angeles Center
Tue 08:27:42 PM 36.7256 -112.9994 70° East 482 555 33,000  Level Los Angeles Center
Tue 08:28:44 PM 36.7703 -112.8428 70° East 482 555 33,000  Level Los Angeles Center
Tue 08:29:46 PM 36.8156 -112.6856 70° East 485 558 33,000  Level Los Angeles Center
Tue 08:30:48 PM 36.8694 -112.4972 70° East 484 557 33,000  Level Los Angeles Center
Tue 08:31:50 PM 36.9133 -112.3381 71° East 487 560 33,000  Level Los Angeles Center
Tue 08:32:52 PM 36.9583 -112.1800 70° East 488 562 33,000  Level Los Angeles Center
Tue 08:33:54 PM 37.0019 -112.0208 71° East 487 560 33,000  Level Los Angeles Center
Tue 08:35:02 PM 37.0544 -111.8322 71° East 484 557 33,000  Level Denver Center
Tue 08:36:03 PM 37.0975 -111.6728 71° East 486 559 33,000  Level Denver Center
Tue 08:37:05 PM 37.1406 -111.5144 71° East 484 557 33,000  Level Denver Center
Tue 08:38:06 PM 37.1842 -111.3542 71° East 487 560 33,000  Level Denver Center
Tue 08:39:08 PM 37.2269 -111.1961 71° East 481 554 33,000  Level Denver Center
Tue 08:40:09 PM 37.2700 -111.0375 71° East 483 556 33,000  Level Denver Center
Tue 08:41:11 PM 37.3206 -110.8467 72° East 483 556 33,000  Level Denver Center
Tue 08:42:12 PM 37.3625 -110.6856 72° East 484 557 33,000  Level Denver Center
Tue 08:43:13 PM 37.4047 -110.5242 72° East 487 560 33,000  Level Denver Center
Tue 08:44:15 PM 37.4481 -110.3597 72° East 496 571 33,000  Level Denver Center
Tue 08:45:16 PM 37.4919 -110.1878 72° East 487 560 33,000  Level Denver Center
Tue 08:46:18 PM 37.5331 -110.0311 72° East 491 565 33,000  Level Denver Center
Tue 08:47:19 PM 37.5789 -109.8489 72° East 490 564 33,000  Level Denver Center
Tue 08:48:20 PM 37.6194 -109.6900 72° East 494 568 33,000  Level Denver Center
Tue 08:49:22 PM 37.6589 -109.5347 72° East 487 560 33,000  Level Denver Center
Tue 08:50:23 PM 37.7056 -109.3514 72° East 490 564 33,000  Level Denver Center
Tue 08:51:25 PM 37.7447 -109.1922 73° East 493 567 33,000  Level Denver Center
Tue 08:52:26 PM 37.7839 -109.0339 73° East 493 567 33,000  Level Denver Center
Tue 08:53:28 PM 37.8189 -108.8469 77° East 490 564 33,000  Level Denver Center
Tue 08:54:29 PM 37.8403 -108.6797 81° East 499 574 33,000  Level Denver Center
Tue 08:55:31 PM 37.8639 -108.4897 81° East 492 566 33,000  Level Denver Center
Tue 08:56:32 PM 37.8853 -108.3233 81° East 495 570 33,000  Level Denver Center
Tue 08:57:33 PM 37.9056 -108.1586 81° East 496 571 33,000  Level Denver Center
Tue 08:58:35 PM 37.9281 -107.9672 81° East 493 567 33,000  Level Denver Center
Tue 08:59:36 PM 37.9478 -107.8000 81° East 497 572 33,000  Level Denver Center
Tue 09:00:37 PM 37.9706 -107.6072 81° East 496 571 33,000  Level Denver Center
Tue 09:01:39 PM 37.9889 -107.4422 82° East 495 570 33,000  Level Denver Center
Tue 09:02:40 PM 38.0081 -107.2739 82° East 501 577 33,000  Level Denver Center
Tue 09:03:42 PM 38.0308 -107.0731 82° East 500 575 33,000  Level Denver Center
Tue 09:04:43 PM 38.0497 -106.9072 82° East 497 572 33,000  Level Denver Center
Tue 09:05:44 PM 38.0669 -106.7411 82° East 498 573 33,000  Level Denver Center
Tue 09:06:46 PM 38.0869 -106.5489 82° East 492 566 33,000  Level Denver Center
Tue 09:07:47 PM 38.1036 -106.3978 82° East 494 568 33,000  Level Denver Center
Tue 09:08:49 PM 38.1211 -106.2253 83° East 494 568 33,000  Level Denver Center
Tue 09:09:50 PM 38.1439 -106.0219 82° East 496 571 33,000  Level Denver Center
Tue 09:10:51 PM 38.1603 -105.8572 83° East 492 566 33,000  Level Denver Center
Tue 09:11:53 PM 38.1781 -105.6619 83° East 498 573 33,000 -49 Level Denver Center
Tue 09:12:54 PM 38.1956 -105.4967 82° East 495 570 32,900  Descending Denver Center
Tue 09:13:56 PM 38.2117 -105.3303 83° East 494 568 33,000 49 Climbing Denver Center
Tue 09:14:57 PM 38.2303 -105.1356 83° East 495 570 33,000  Level Denver Center
Tue 09:15:59 PM 38.2456 -104.9681 83° East 497 572 33,000  Level Denver Center
Tue 09:17:00 PM 38.2639 -104.7756 83° East 493 567 33,000  Level Denver Center
Tue 09:18:02 PM 38.2786 -104.6092 84° East 493 567 33,000  Level Denver Center
Tue 09:19:03 PM 38.2933 -104.4436 83° East 490 564 33,000  Level Denver Center
Tue 09:20:05 PM 38.3186 -104.2486 81° East 499 574 33,000  Level Denver Center
Tue 09:21:06 PM 38.3383 -104.0856 81° East 492 566 33,000 195 Level Denver Center
Tue 09:22:08 PM 38.3622 -103.8981 81° East 480 552 33,400 683 Climbing Denver Center
Tue 09:23:09 PM 38.3831 -103.7367 81° East 482 555 34,400 780 Climbing Denver Center
Tue 09:24:11 PM 38.4025 -103.5767 81° East 478 550 35,000 290 Climbing Denver Center
Tue 09:25:13 PM 38.4256 -103.3850 81° East 484 557 35,000  Level Denver Center
Tue 09:26:14 PM 38.4467 -103.2242 80° East 482 555 35,000  Level Denver Center
Tue 09:27:16 PM 38.4683 -103.0378 81° East 479 551 35,000  Level Denver Center
Tue 09:28:18 PM 38.4864 -102.8767 82° East 479 551 35,000  Level Denver Center
Tue 09:29:19 PM 38.5081 -102.6883 82° East 479 551 35,000  Level Denver Center
Tue 09:30:21 PM 38.5261 -102.5269 82° East 480 552 35,000  Level Denver Center
Tue 09:31:23 PM 38.5431 -102.3672 82° East 477 549 35,000  Level Denver Center
Tue 09:32:24 PM 38.5631 -102.1789 82° East 478 550 35,000  Level Denver Center
Tue 09:33:26 PM 38.5825 -102.0164 81° East 482 555 35,000  Level Denver Center
Tue 09:34:28 PM 38.6031 -101.8261 82° East 482 555 35,000  Level Denver Center
Tue 09:35:29 PM 38.6203 -101.6647 82° East 479 551 35,000  Level Denver Center
Tue 09:36:31 PM 38.6372 -101.5028 82° East 478 550 35,000  Level Denver Center
Tue 09:37:33 PM 38.6572 -101.3131 82° East 481 554 35,000  Level Denver Center
Tue 09:38:34 PM 38.6747 -101.1500 82° East 482 555 35,000  Level Denver Center
Tue 09:39:36 PM 38.6919 -100.9594 83° East 483 556 35,000  Level Denver Center
Tue 09:40:38 PM 38.7092 -100.7978 82° East 477 549 35,000  Level Denver Center
Tue 09:41:40 PM 38.7275 -100.6081 83° East 480 552 35,000  Level Denver Center
Tue 09:42:41 PM 38.7436 -100.4461 83° East 479 551 35,000  Level Denver Center
Tue 09:43:43 PM 38.7578 -100.2861 83° East 474 545 35,000  Level Denver Center
Tue 09:44:45 PM 38.7761 -100.1025 83° East 468 539 35,000  Level Denver Center
Tue 09:45:46 PM 38.7894 -99.9436 84° East 466 536 35,000  Level Denver Center
Tue 09:46:48 PM 38.8064 -99.7575 83° East 470 541 35,000  Level Denver Center
Tue 09:47:50 PM 38.8200 -99.5992 84° East 467 537 35,000  Level Denver Center
Tue 09:48:51 PM 38.8344 -99.4414 83° East 467 537 35,000  Level Denver Center
Tue 09:49:53 PM 38.8492 -99.2564 84° East 466 536 35,000  Level Denver Center
Tue 09:50:55 PM 38.8606 -99.0986 85° East 466 536 35,000  Level Denver Center
Tue 09:51:56 PM 38.8736 -98.9144 85° East 464 534 35,000  Level Denver Center
Tue 09:52:58 PM 38.8839 -98.7561 85° East 466 536 35,000  Level Denver Center
Tue 09:54:12 PM 38.8967 -98.5494 85° East 468 539 35,000  Level Kansas City Center
Tue 09:55:13 PM 38.9075 -98.3850 85° East 461 531 35,000  Level Kansas City Center
Tue 09:56:15 PM 38.9181 -98.2181 85° East 467 537 35,000  Level Kansas City Center
Tue 09:57:16 PM 38.9283 -98.0489 85° East 462 532 35,000  Level Kansas City Center
Tue 09:58:18 PM 38.9369 -97.8881 86° East 462 532 35,000  Level Kansas City Center
Tue 09:59:19 PM 38.9483 -97.6972 86° East 461 531 35,000  Level Kansas City Center
Tue 10:00:21 PM 38.9581 -97.5400 85° East 461 531 35,000  Level Kansas City Center
Tue 10:01:22 PM 38.9669 -97.3608 86° East 462 532 35,000  Level Kansas City Center
Tue 10:02:24 PM 38.9764 -97.1989 86° East 456 525 35,000  Level Kansas City Center
Tue 10:03:25 PM 38.9836 -97.0367 87° East 454 522 35,000  Level Kansas City Center
Tue 10:04:27 PM 38.9925 -96.8661 86° East 454 522 35,000  Level Kansas City Center
Tue 10:05:28 PM 39.0008 -96.7106 86° East 455 524 35,000  Level Kansas City Center
Tue 10:06:29 PM 39.0086 -96.5297 87° East 455 524 35,000  Level Kansas City Center
Tue 10:07:31 PM 39.0153 -96.3744 87° East 455 524 35,000  Level Kansas City Center
Tue 10:08:32 PM 39.0217 -96.2214 87° East 449 517 35,000  Level Kansas City Center
Tue 10:09:34 PM 39.0294 -96.0425 87° East 449 517 35,000  Level Kansas City Center
Tue 10:10:35 PM 39.0356 -95.8894 87° East 449 517 35,000  Level Kansas City Center
Tue 10:12:38 PM 39.0497 -95.5558 87° East 451 519 35,000  Level Kansas City Center
Tue 10:13:40 PM 39.0564 -95.3872 87° East 449 517 35,000  Level Kansas City Center
Tue 10:14:41 PM 39.0631 -95.2128 87° East 455 524 35,000  Level Kansas City Center
Tue 10:15:42 PM 39.0667 -95.0761 88° East 446 513 35,000  Level Kansas City Center
Tue 10:17:00 PM 39.0715 -94.8717 88° East  Level FlightAware Approximate
Tue 10:18:46 PM 39.0844 -94.5675 110° East 447 514 35,000  Level Kansas City Center
Tue 10:19:48 PM 39.0878 -94.4136 88° East 450 518 35,000  Level Kansas City Center
Tue 10:20:49 PM 39.0925 -94.2372 88° East 444 511 35,000  Level Kansas City Center
Tue 10:21:51 PM 39.0819 -94.0892 95° East 440 506 35,000  Level Kansas City Center
Tue 10:22:52 PM 39.0389 -93.9486 111° Southeast 443 510 35,000  Level Kansas City Center
Tue 10:23:53 PM 38.9867 -93.7858 112° Southeast 439 505 35,000  Level Kansas City Center
Tue 10:24:00 PM 38.9891 -93.7930 110° East  Level FlightAware Approximate
Tue 10:24:55 PM 38.9428 -93.6467 112° Southeast 443 510 35,000  Level Kansas City Center
Tue 10:25:56 PM 38.8958 -93.5008 112° Southeast 441 507 34,600 -689 Descending Kansas City Center
Tue 10:26:57 PM 38.8494 -93.3542 112° Southeast 441 507 33,600 -976 Descending Kansas City Center
Tue 10:27:59 PM 38.8014 -93.2075 113° Southeast 444 511 32,600 -976 Descending Kansas City Center
Tue 10:29:00 PM 38.7603 -93.0606 110° East 439 505 31,600 -1,082 Descending Kansas City Center
Tue 10:30:01 PM 38.7700 -92.8689 86° East 442 509 30,400 -1,033 Descending Kansas City Center
Tue 10:31:02 PM 38.7706 -92.7103 90° East 442 509 29,500 -634 Descending Kansas City Center
Tue 10:32:04 PM 38.7703 -92.5536 90° East 440 506 29,100 -244 Descending Kansas City Center
Tue 10:33:05 PM 38.7708 -92.3942 90° East 441 507 29,000  Descending Kansas City Center
Tue 10:34:06 PM 38.7694 -92.2314 91° East 447 514 29,100  Climbing Kansas City Center
Tue 10:35:08 PM 38.7700 -92.0733 90° East 444 511 29,000 -1,024 Descending Kansas City Center
Tue 10:36:09 PM 38.7675 -91.9167 91° East 440 506 27,000 -2,410 Descending Kansas City Center
Tue 10:37:10 PM 38.7672 -91.7628 90° East 433 498 24,100 -2,951 Descending Kansas City Center
Tue 10:38:11 PM 38.7653 -91.6047 91° East 426 490 21,000 -2,829 Descending Kansas City Center
Tue 10:39:13 PM 38.7631 -91.4586 91° East 416 479 18,300 -2,537 Descending Kansas City Center
Tue 10:40:14 PM 38.7625 -91.3167 90° East 404 465 15,800 -2,459 Descending Kansas City Center
Tue 10:41:15 PM 38.7611 -91.1808 91° East 388 447 13,300 -2,459 Descending Kansas City Center
Tue 10:42:16 PM 38.7597 -91.0500 91° East 374 430 10,800 -1,721 Descending Kansas City Center
Tue 10:43:17 PM 38.7803 -90.9344 77° East 329 379 9,800 -1,317 Descending Kansas City Center
Tue 10:44:19 PM 38.8006 -90.8372 75° East 291 335 8,100 -1,951 Descending Kansas City Center
Tue 10:45:20 PM 38.8161 -90.7444 78° East 271 312 5,800 -2,016 Descending Kansas City Center
Tue 10:46:21 PM 38.8286 -90.6525 80° East 264 304 4,000 -1,033 Descending Kansas City Center
Tue 10:47:22 PM 38.8181 -90.5675 99° East 250 288 3,700 -295 Descending Kansas City Center

Login

Don't have an account? Register now (free) for customized features, flight alerts, and more!